Air Navigation Services of Czech Republic
Airport: LKLN Updated:  25.05.2018 02:32:06  UTC
 SPECI LKLN 25.05. 02:31 ...
SPECI LKLN 250231Z AUTO VRB02KT 3300 BR BKN002 OVC094 14/14 Q1019=